• Join FlightAware (Why Join?)
  • Login
  • US Flag 
08:42AM EST


 

Airport Tracker/Info


-or-


 

Live Flight TrackerFlight Track Log ✈ AWI3778 ✈ 18-Jun-2013 ✈ KBTV - KPHL

Flight Track Log - Related Links

Times and Time Zones

All times are in EDT time to prevent confusion due to time zone crossing. See the AWI3778 flight status page for this flight to view local times or setup timezone preferences in your user account.

Time Position Orientation Groundspeed Altitude Reporting Facility
EDT Latitude Longitude Course Direction KTS MPH feet Rate Location/Type
04:08PM 44.4036 -73.3553 195° South 275 316 8,800  Level Boston Center
04:10PM 44.2969 -73.3944 195° South 298 343 10,300 1,320 Climbing Boston Center
04:11PM 44.2131 -73.4597 209° Southwest 332 382 11,800 1,500 Climbing Boston Center
04:12PM 43.8807 -73.3738 195° South  Level FlightAware Approximate
04:12PM 44.1269 -73.5247 208° Southwest 355 409 13,300  Level Boston Center
04:13PM 43.7827 -73.4100 195° South  Level FlightAware Approximate
04:13PM 44.0389 -73.5925 209° Southwest 361 415 14,800  Level Boston Center
04:14PM 43.6846 -73.4462 195° South  Level FlightAware Approximate
04:14PM 43.9486 -73.6628 209° Southwest 361 415 16,300  Level Boston Center
04:15PM 43.8603 -73.7272 208° Southwest 361 415 17,800 1,500 Climbing Boston Center
04:16PM 43.7742 -73.7914 208° Southwest 361 415 19,300 1,500 Climbing Boston Center
04:17PM 43.6900 -73.8586 210° Southwest 356 410 20,800 1,440 Climbing Boston Center
04:18PM 43.6122 -73.9111 206° Southwest 356 410 22,200 1,440 Climbing Boston Center
04:19PM 43.5322 -73.9694 208° Southwest 345 397 23,700 900 Climbing Boston Center
04:20PM 43.4500 -74.0303 208° Southwest 340 391 24,000 120 Climbing Boston Center
04:21PM 43.3553 -74.1047 210° Southwest 347 399 24,000  Level Boston Center
04:22PM 43.2625 -74.1736 208° Southwest 364 419 24,000  Level Boston Center
04:23PM 43.1656 -74.2450 208° Southwest 379 436 24,000  Level Boston Center
04:24PM 43.0686 -74.3186 209° Southwest 399 459 24,000  Level Boston Center
04:25PM 42.9906 -74.3758 208° Southwest 399 459 24,000  Level Boston Center
04:26PM 42.8703 -74.4600 207° Southwest 399 459 24,000  Level Boston Center
04:27PM 42.7731 -74.5303 208° Southwest 399 459 24,000 -300 Level Boston Center
04:28PM 42.6822 -74.5978 209° Southwest 393 452 23,500 -1,020 Descending Boston Center
04:29PM 42.5892 -74.6681 209° Southwest 388 447 22,000 -780 Descending Boston Center
04:30PM 42.4939 -74.7350 207° Southwest 388 447 22,000  Level Boston Center
04:31PM 42.3967 -74.8044 208° Southwest 388 447 22,000 -120 Level Boston Center
04:32PM 42.2950 -74.8764 208° Southwest 401 461 21,800 -900 Descending Boston Center
04:33PM 42.1956 -74.9483 208° Southwest 406 467 20,200 -1,080 Descending Boston Center
04:34PM 42.0475 -75.0689 211° Southwest 386 444 19,000 -480 Descending New York Center
04:35PM 41.9467 -75.1517 211° Southwest 393 452 19,000  Level New York Center
04:36PM 41.8564 -75.2264 212° Southwest 393 452 19,000 -660 Level New York Center
04:37PM 41.7642 -75.2981 210° Southwest 393 452 17,800 -1,440 Descending New York Center
04:38PM 41.6867 -75.3622 212° Southwest 383 441 16,200 -1,620 Descending New York Center
04:39PM 41.5964 -75.4339 211° Southwest 378 435 14,500 -1,740 Descending New York Center
04:40PM 41.4953 -75.5153 211° Southwest 389 448 12,700 -1,320 Descending New York Center
04:41PM 41.4050 -75.5864 211° Southwest 389 448 12,000 -360 Descending New York Center
04:42PM 41.3169 -75.6547 210° Southwest 394 453 12,000  Level New York Center
04:43PM 41.2050 -75.6933 195° South 388 447 12,000  Level New York Center
04:44PM 41.1031 -75.6889 178° South 393 452 12,000 -420 Level New York Center
04:45PM 40.9925 -75.6892 180° South 407 468 11,200 -840 Descending New York Center
04:46PM 40.8858 -75.6483 164° South 401 461 10,300 -600 Descending New York Center
04:47PM 40.7717 -75.5908 159° South 401 461 10,000 -180 Descending New York Center
04:48PM 40.6675 -75.5397 160° South 401 461 10,000  Level New York Center
04:49PM 40.5631 -75.4889 160° South 401 461 10,000  Level New York Center
04:50PM 40.4894 -75.4539 160° South 391 450 10,000 -480 Level New York Center
04:51PM 40.3897 -75.3981 157° South 335 386 9,100 -1,200 Descending New York Center
04:52PM 40.3122 -75.3547 157° South 321 369 7,600 -1,080 Descending New York Center
04:53PM 40.2397 -75.3389 171° South 295 339 7,000 -300 Descending New York Center
04:54PM 40.1547 -75.3797 200° South 285 328 7,000  Level New York Center
04:55PM 40.0867 -75.4131 201° Southwest 296 341 7,000 -540 Level New York Center
04:56PM 39.9956 -75.3989 173° South 289 333 6,000 -540 Descending New York Center
04:57PM 39.9319 -75.4272 199° South 289 333 6,000 -540 Level New York Center
04:58PM 39.9106 -75.4961 248° West 206 237 5,000 -660 Descending New York Center
04:59PM 39.8953 -75.5600 253° West 206 237 4,700 -540 Descending New York Center
05:00PM 39.8717 -75.6286 246° West 201 231 4,000 -420 Descending New York Center
05:01PM 39.8167 -75.6167 171° South 204 235 4,000  Level Philadelphia TRACON
05:02PM 39.8000 -75.5500 108° East 181 208 4,000 -420 Level Philadelphia TRACON
05:03PM 39.8167 -75.4833 72° East 177 204 3,200 -840 Descending Philadelphia TRACON